CheckWX is a tool to help pilots better visualize weather data.  It is not intended as a substitute for an official pre-flight weather briefing.

18:33:20 UTC

KCUL METAR
Carmi Municipal Airport
Carmi, Illinois, USA
Current

15 mins ago

KCUL 241818Z AUTO 00000KT 10SM SCT046 BKN060 OVC100 25/17 A2987 RMK AO2
Observed
Apr-24 @ 18:18 UTC
Visibility
10 SM
Flight Rules
VFR
Cloud Levels
  • Scattered at 4,600' AGL
  • Broken at 6,000' AGL
  • Overcast at 10,000' AGL
Temperature
25°C / 77°F
Dewpoint
17°C / 63°F
Humidity
61%
Altimeter
29.87" Hg
Pressure
1011.52 hPa
Previous

36 mins ago

KCUL 241757Z AUTO 13006KT 10SM BKN050 OVC100 24/17 A2988 RMK AO2
Observed
Apr-24 @ 17:57 UTC
Wind
  • 130° at 6 KTS
Visibility
10 SM
Flight Rules
VFR
Cloud Levels
  • Broken at 5,000' AGL
  • Overcast at 10,000' AGL
Temperature
24°C / 75°F
Dewpoint
17°C / 63°F
Humidity
65%
Altimeter
29.88" Hg
Pressure
1011.82 hPa
Previous

2 hours ago

KCUL 241657Z AUTO 13004KT 10SM SCT055 23/16 A2991 RMK AO2
Observed
Apr-24 @ 16:57 UTC
Wind
  • 130° at 4 KTS
Visibility
10 SM
Flight Rules
VFR
Cloud Levels
  • Scattered at 5,500' AGL
Temperature
23°C / 73°F
Dewpoint
16°C / 61°F
Humidity
65%
Altimeter
29.91" Hg
Pressure
1012.92 hPa